createdAt,value
2022-08-27T00:01:59.199Z,22.10
2022-08-27T00:04:30.157Z,21.75
2022-08-27T00:07:04.119Z,25.60
2022-08-27T00:09:34.933Z,26.30
2022-08-27T00:12:06.829Z,27.50
2022-08-27T00:14:38.748Z,28.27
2022-08-27T00:17:10.230Z,30.77
2022-08-27T00:19:41.739Z,29.08
2022-08-27T00:22:15.357Z,33.40
2022-08-27T00:24:49.098Z,32.70
2022-08-27T00:27:19.943Z,33.55
2022-08-27T00:29:50.968Z,33.97
2022-08-27T00:32:21.403Z,37.22
2022-08-27T00:34:51.824Z,40.03
2022-08-27T00:37:24.661Z,38.78
2022-08-27T00:39:55.882Z,37.92
2022-08-27T00:42:26.483Z,40.90
2022-08-27T00:45:00.159Z,38.35
2022-08-27T00:47:35.357Z,42.38
2022-08-27T00:50:15.349Z,42.58
2022-08-27T00:52:58.126Z,40.85
2022-08-27T00:55:36.036Z,35.72
2022-08-27T00:58:17.614Z,36.22
2022-08-27T01:00:50.152Z,34.45
2022-08-27T01:03:20.824Z,37.03
2022-08-27T01:05:53.375Z,42.05
2022-08-27T01:08:33.339Z,38.47
2022-08-27T01:11:07.635Z,43.97
2022-08-27T01:14:00.090Z,47.75
2022-08-27T01:16:38.545Z,48.40
2022-08-27T01:19:20.923Z,50.97
2022-08-27T01:22:07.362Z,51.75
2022-08-27T01:24:45.612Z,50.65
2022-08-27T01:27:22.011Z,52.45
2022-08-27T01:29:52.583Z,49.00
2022-08-27T01:32:27.285Z,46.63
2022-08-27T01:34:59.068Z,43.95
2022-08-27T01:37:31.092Z,46.78
2022-08-27T01:40:05.671Z,47.78
2022-08-27T01:42:40.338Z,48.05
2022-08-27T01:45:15.037Z,49.97
2022-08-27T01:47:45.829Z,53.22
2022-08-27T01:50:21.771Z,52.63
2022-08-27T01:52:53.048Z,55.88
2022-08-27T01:55:29.451Z,58.38
2022-08-27T01:57:59.732Z,58.08
2022-08-27T02:00:34.829Z,61.45
2022-08-27T02:03:08.423Z,62.88
2022-08-27T02:05:44.949Z,62.85
2022-08-27T02:08:16.124Z,61.60
2022-08-27T02:10:51.776Z,64.03
2022-08-27T02:13:22.145Z,65.28
2022-08-27T02:15:52.443Z,65.68
2022-08-27T02:18:25.975Z,69.07
2022-08-27T02:20:56.179Z,65.80
2022-08-27T02:23:26.493Z,63.13
2022-08-27T02:25:59.326Z,65.38
2022-08-27T02:28:29.497Z,63.40
2022-08-27T02:31:00.956Z,70.00
2022-08-27T02:33:32.979Z,64.18
2022-08-27T02:36:03.218Z,65.47
2022-08-27T02:38:33.655Z,60.88
2022-08-27T02:41:06.616Z,66.70
2022-08-27T02:43:37.199Z,66.25
2022-08-27T02:46:07.865Z,67.63
2022-08-27T02:48:40.177Z,67.45
2022-08-27T02:51:11.391Z,65.78
2022-08-27T02:53:42.396Z,67.95
2022-08-27T02:56:15.480Z,68.53
2022-08-27T02:58:52.666Z,70.55
2022-08-27T03:01:23.236Z,66.32
2022-08-27T03:03:53.498Z,62.70
2022-08-27T03:06:23.817Z,60.05
2022-08-27T03:08:53.980Z,59.80
2022-08-27T03:11:26.991Z,59.10
2022-08-27T03:13:58.994Z,57.55
2022-08-27T03:16:29.755Z,58.55
2022-08-27T03:18:57.741Z,65.57
2022-08-27T03:21:29.216Z,56.80
2022-08-27T03:24:11.348Z,53.25
2022-08-27T03:26:53.841Z,56.90
2022-08-27T03:29:24.318Z,57.00
2022-08-27T03:31:54.599Z,57.55
2022-08-27T03:34:24.737Z,49.80
2022-08-27T03:36:57.321Z,51.17
2022-08-27T03:39:27.468Z,50.45
2022-08-27T03:42:00.221Z,46.15
2022-08-27T03:44:30.461Z,51.33
2022-08-27T03:47:03.370Z,45.55
2022-08-27T03:49:33.512Z,38.60
2022-08-27T03:52:04.906Z,31.80
2022-08-27T03:54:37.711Z,28.95
2022-08-27T03:57:11.517Z,25.65
2022-08-27T03:59:41.689Z,25.25
2022-08-27T04:02:12.423Z,20.52
2022-08-27T04:04:45.455Z,20.25
2022-08-27T04:07:15.612Z,20.80
2022-08-27T04:09:45.808Z,20.52
2022-08-27T04:12:18.585Z,20.42
2022-08-27T04:14:48.876Z,19.35
2022-08-27T04:17:19.098Z,17.45
2022-08-27T04:19:49.375Z,18.33
2022-08-27T04:22:19.590Z,19.60
2022-08-27T04:24:50.304Z,22.85
2022-08-27T04:27:25.647Z,21.02
2022-08-27T04:29:59.466Z,23.27
2022-08-27T04:32:32.022Z,19.73
2022-08-27T04:35:04.702Z,20.65
2022-08-27T04:37:35.772Z,24.67
2022-08-27T04:40:07.027Z,25.67
2022-08-27T04:42:39.927Z,24.80
2022-08-27T04:45:14.690Z,25.27
2022-08-27T04:47:47.111Z,23.45
2022-08-27T04:50:17.355Z,24.98
2022-08-27T04:52:47.840Z,24.92
2022-08-27T04:55:18.336Z,21.48
2022-08-27T04:57:51.068Z,23.73
2022-08-27T05:00:22.821Z,22.42
2022-08-27T05:02:52.967Z,20.13
2022-08-27T05:05:23.646Z,24.05
2022-08-27T05:07:53.852Z,21.13
2022-08-27T05:10:24.028Z,19.38
2022-08-27T05:12:59.988Z,18.52
2022-08-27T05:15:31.363Z,16.95
2022-08-27T05:18:02.330Z,14.52
2022-08-27T05:20:35.031Z,15.20
2022-08-27T05:23:05.216Z,11.88
2022-08-27T05:25:40.351Z,16.23
2022-08-27T05:28:16.189Z,12.52
2022-08-27T05:30:52.397Z,13.07
2022-08-27T05:33:28.664Z,12.43
2022-08-27T05:36:01.993Z,10.60
2022-08-27T05:38:34.241Z,12.98
2022-08-27T05:41:16.012Z,15.20
2022-08-27T05:43:50.715Z,11.95
2022-08-27T05:46:25.418Z,11.27
2022-08-27T05:48:59.440Z,9.95
2022-08-27T05:51:34.491Z,10.35
2022-08-27T05:54:08.916Z,13.60
2022-08-27T05:56:41.240Z,14.10
2022-08-27T05:59:26.951Z,10.65
2022-08-27T06:01:59.840Z,11.15
2022-08-27T06:04:30.113Z,13.85
2022-08-27T06:07:00.953Z,8.55
2022-08-27T06:09:32.244Z,10.30
2022-08-27T06:12:04.469Z,10.10
2022-08-27T06:14:40.487Z,12.02
2022-08-27T06:17:10.691Z,13.25
2022-08-27T06:19:42.493Z,16.58
2022-08-27T06:22:13.294Z,19.83
2022-08-27T06:24:45.210Z,14.70
2022-08-27T06:27:19.157Z,15.55
2022-08-27T06:29:52.086Z,16.48
2022-08-27T06:32:24.113Z,15.32
2022-08-27T06:34:54.329Z,17.10
2022-08-27T06:37:24.901Z,14.57
2022-08-27T06:39:55.507Z,17.65
2022-08-27T06:42:25.909Z,17.52
2022-08-27T06:44:58.763Z,19.85
2022-08-27T06:47:29.219Z,22.35
2022-08-27T06:49:59.676Z,26.88
2022-08-27T06:52:29.999Z,30.52
2022-08-27T06:55:00.186Z,34.72
2022-08-27T06:57:30.407Z,38.72
2022-08-27T07:00:06.955Z,43.47
2022-08-27T07:02:39.429Z,32.33
2022-08-27T07:05:12.737Z,40.00
2022-08-27T07:07:46.701Z,34.42
2022-08-27T07:10:19.016Z,41.20
2022-08-27T07:12:49.241Z,39.92
2022-08-27T07:15:22.575Z,39.22
2022-08-27T07:17:55.780Z,40.08
2022-08-27T07:20:26.735Z,37.08
2022-08-27T07:22:59.378Z,34.58
2022-08-27T07:25:32.156Z,36.45
2022-08-27T07:28:02.858Z,43.50
2022-08-27T07:30:38.967Z,39.40
2022-08-27T07:33:09.281Z,40.75
2022-08-27T07:35:39.636Z,37.42
2022-08-27T07:38:12.513Z,36.97
2022-08-27T07:40:42.915Z,37.58
2022-08-27T07:43:25.856Z,38.25
2022-08-27T07:45:58.741Z,37.28
2022-08-27T07:48:29.907Z,31.25
2022-08-27T07:51:00.572Z,29.55
2022-08-27T07:53:30.794Z,26.48
2022-08-27T07:56:07.845Z,27.30
2022-08-27T07:58:41.133Z,26.75
2022-08-27T08:01:14.444Z,24.80
2022-08-27T08:03:44.801Z,25.40
2022-08-27T08:06:18.661Z,25.35
2022-08-27T08:08:48.894Z,28.55
2022-08-27T08:11:22.072Z,32.20
2022-08-27T08:13:52.351Z,30.17
2022-08-27T08:16:31.607Z,31.85
2022-08-27T08:19:02.946Z,30.67
2022-08-27T08:21:33.464Z,29.90
2022-08-27T08:24:04.237Z,30.63
2022-08-27T08:26:34.670Z,30.98
2022-08-27T08:29:06.218Z,31.23
2022-08-27T08:31:39.129Z,31.92
2022-08-27T08:34:09.375Z,39.10
2022-08-27T08:36:42.717Z,40.97
2022-08-27T08:39:16.494Z,47.78
2022-08-27T08:41:54.215Z,48.38
2022-08-27T08:44:33.907Z,48.90
2022-08-27T08:47:19.939Z,45.90
2022-08-27T08:49:57.159Z,43.83
2022-08-27T08:52:48.163Z,42.95
2022-08-27T08:55:39.276Z,39.90
2022-08-27T08:58:38.312Z,39.47
2022-08-27T09:01:14.618Z,40.08
2022-08-27T09:03:57.302Z,37.10
2022-08-27T09:06:42.453Z,38.03
2022-08-27T09:09:24.946Z,38.95
2022-08-27T09:12:03.601Z,38.53
2022-08-27T09:14:41.368Z,38.60
2022-08-27T09:17:16.788Z,39.60
2022-08-27T09:19:52.357Z,40.70
2022-08-27T09:22:31.129Z,38.00
2022-08-27T09:25:16.846Z,39.00
2022-08-27T09:27:53.393Z,37.08
2022-08-27T09:30:30.765Z,36.65
2022-08-27T09:33:06.313Z,37.05
2022-08-27T09:35:49.853Z,35.83
2022-08-27T09:38:35.285Z,35.80
2022-08-27T09:41:12.385Z,31.70
2022-08-27T09:43:43.906Z,28.50
2022-08-27T09:46:27.353Z,28.08
2022-08-27T09:49:00.739Z,28.73
2022-08-27T09:51:35.627Z,31.42
2022-08-27T09:54:08.939Z,30.90
2022-08-27T09:56:43.486Z,29.77
2022-08-27T09:59:23.346Z,30.17
2022-08-27T10:02:00.972Z,31.98
2022-08-27T10:04:50.925Z,32.30
2022-08-27T10:07:40.207Z,30.95
2022-08-27T10:10:22.416Z,29.55
2022-08-27T10:13:00.550Z,25.67
2022-08-27T10:15:44.022Z,26.52
2022-08-27T10:18:27.916Z,21.98
2022-08-27T10:21:15.465Z,22.40
2022-08-27T10:24:05.807Z,20.75
2022-08-27T10:26:48.978Z,19.48
2022-08-27T10:29:48.228Z,17.20
2022-08-27T10:32:40.191Z,21.40
2022-08-27T10:35:20.012Z,16.67
2022-08-27T10:38:10.017Z,16.42
2022-08-27T10:40:53.607Z,16.67
2022-08-27T10:43:54.003Z,16.23
2022-08-27T10:46:56.454Z,15.45
2022-08-27T10:49:40.669Z,15.15
2022-08-27T10:52:23.238Z,16.13
2022-08-27T10:55:02.681Z,16.63
2022-08-27T10:58:13.396Z,15.45
2022-08-27T11:00:58.303Z,17.83
2022-08-27T11:03:41.415Z,16.90
2022-08-27T11:06:27.216Z,15.27
2022-08-27T11:09:05.323Z,17.65
2022-08-27T11:12:13.272Z,17.60
2022-08-27T11:14:44.291Z,18.10
2022-08-27T11:17:21.359Z,17.00
2022-08-27T11:20:02.941Z,16.75
2022-08-27T11:22:38.464Z,18.55
2022-08-27T11:25:27.986Z,16.20
2022-08-27T11:28:02.130Z,15.23
2022-08-27T11:30:55.189Z,16.58
2022-08-27T11:33:33.806Z,15.02
2022-08-27T11:36:55.131Z,15.45
2022-08-27T11:39:57.319Z,19.60
2022-08-27T11:42:42.178Z,18.77
2022-08-27T11:45:24.667Z,14.15
2022-08-27T11:48:01.433Z,12.00
2022-08-27T11:50:34.083Z,10.82
2022-08-27T11:53:08.248Z,13.77
2022-08-27T11:55:41.686Z,13.20
2022-08-27T11:58:27.307Z,14.88
2022-08-27T12:01:02.430Z,16.52
2022-08-27T12:03:38.290Z,14.00
2022-08-27T12:06:27.283Z,11.30
2022-08-27T12:09:15.583Z,11.82
2022-08-27T12:12:02.808Z,12.57
2022-08-27T12:14:50.843Z,14.35
2022-08-27T12:17:48.353Z,17.90
2022-08-27T12:20:39.324Z,13.25
2022-08-27T12:23:54.075Z,14.18
2022-08-27T12:26:36.374Z,15.02
2022-08-27T12:29:31.837Z,13.10
2022-08-27T12:32:31.071Z,13.07
2022-08-27T12:35:21.939Z,14.93
2022-08-27T12:37:58.573Z,12.85
2022-08-27T12:40:33.005Z,16.52
2022-08-27T12:43:14.370Z,13.63
2022-08-27T12:45:50.114Z,13.98
2022-08-27T12:48:27.212Z,11.80
2022-08-27T12:51:02.754Z,20.55
2022-08-27T12:53:46.238Z,15.07
2022-08-27T12:56:51.976Z,16.67
2022-08-27T12:59:53.431Z,15.48
2022-08-27T13:02:53.594Z,17.02
2022-08-27T13:05:26.601Z,13.70
2022-08-27T13:07:57.465Z,17.77
2022-08-27T13:10:35.601Z,14.85
2022-08-27T13:13:14.271Z,15.50
2022-08-27T13:15:52.875Z,15.43
2022-08-27T13:18:24.732Z,12.77
2022-08-27T13:21:07.369Z,13.57
2022-08-27T13:23:38.192Z,13.20
2022-08-27T13:26:14.353Z,14.93
2022-08-27T13:28:46.143Z,13.80
2022-08-27T13:31:19.465Z,14.40
2022-08-27T13:33:51.120Z,14.75
2022-08-27T13:36:32.238Z,13.73
2022-08-27T13:39:07.997Z,14.55
2022-08-27T13:41:44.654Z,15.32
2022-08-27T13:44:22.180Z,15.02
2022-08-27T13:47:03.438Z,20.02
2022-08-27T13:49:40.255Z,17.70
2022-08-27T13:52:29.955Z,14.13
2022-08-27T13:55:06.357Z,16.23
2022-08-27T13:57:49.148Z,17.55
2022-08-27T14:00:27.132Z,15.38
2022-08-27T14:02:58.899Z,13.65
2022-08-27T14:05:36.993Z,16.77
2022-08-27T14:08:21.014Z,12.32
2022-08-27T14:11:01.851Z,11.48
2022-08-27T14:13:44.200Z,11.90
2022-08-27T14:16:27.632Z,16.00
2022-08-27T14:19:10.541Z,17.95
2022-08-27T14:21:45.348Z,13.27
2022-08-27T14:24:15.601Z,13.27
2022-08-27T14:26:45.930Z,19.08
2022-08-27T14:29:18.849Z,15.32
2022-08-27T14:31:49.947Z,14.32
2022-08-27T14:34:20.130Z,14.30
2022-08-27T14:36:54.630Z,15.15
2022-08-27T14:39:27.033Z,16.83
2022-08-27T14:41:57.650Z,15.10
2022-08-27T14:44:31.170Z,13.95
2022-08-27T14:47:04.735Z,13.93
2022-08-27T14:49:47.228Z,13.85
2022-08-27T14:52:18.453Z,13.30
2022-08-27T14:54:48.819Z,14.70
2022-08-27T14:57:19.499Z,13.95
2022-08-27T14:59:55.296Z,12.82
2022-08-27T15:02:25.803Z,14.70
2022-08-27T15:04:56.126Z,13.07
2022-08-27T15:07:26.813Z,12.82
2022-08-27T15:10:00.834Z,11.90
2022-08-27T15:12:31.249Z,12.27
2022-08-27T15:15:04.069Z,12.35
2022-08-27T15:17:36.640Z,11.05
2022-08-27T15:20:19.984Z,11.18
2022-08-27T15:22:54.846Z,11.45
2022-08-27T15:25:25.613Z,10.85
2022-08-27T15:27:55.852Z,9.82
2022-08-27T15:30:32.436Z,12.35
2022-08-27T15:33:02.956Z,10.18
2022-08-27T15:35:39.270Z,10.20
2022-08-27T15:38:09.661Z,10.32
2022-08-27T15:40:40.266Z,9.35
2022-08-27T15:43:15.497Z,8.63
2022-08-27T15:45:48.351Z,8.40
2022-08-27T15:48:18.535Z,8.82
2022-08-27T15:50:48.787Z,6.93
2022-08-27T15:53:20.479Z,8.50
2022-08-27T15:55:51.362Z,10.93
2022-08-27T15:58:21.558Z,10.02
2022-08-27T16:00:54.618Z,8.32
2022-08-27T16:03:35.647Z,7.70
2022-08-27T16:06:07.121Z,8.75
2022-08-27T16:08:41.970Z,11.55
2022-08-27T16:11:12.899Z,6.15
2022-08-27T16:13:43.616Z,6.15
2022-08-27T16:16:18.188Z,8.38
2022-08-27T16:18:50.892Z,8.63
2022-08-27T16:21:21.211Z,6.93
2022-08-27T16:23:52.223Z,5.72
2022-08-27T16:26:22.568Z,5.85
2022-08-27T16:28:52.763Z,7.45
2022-08-27T16:31:25.703Z,7.70
2022-08-27T16:33:57.966Z,8.32
2022-08-27T16:36:29.625Z,7.78
2022-08-27T16:39:00.377Z,7.28
2022-08-27T16:41:32.033Z,7.60
2022-08-27T16:44:02.494Z,7.15
2022-08-27T16:46:36.030Z,7.38
2022-08-27T16:49:19.180Z,6.25
2022-08-27T16:51:49.687Z,5.28
2022-08-27T16:54:21.532Z,6.18
2022-08-27T16:56:54.036Z,5.20
2022-08-27T16:59:24.405Z,9.50
2022-08-27T17:01:58.146Z,6.95
2022-08-27T17:04:34.547Z,12.60
2022-08-27T17:07:07.171Z,4.65
2022-08-27T17:09:37.439Z,7.20
2022-08-27T17:12:08.400Z,6.85
2022-08-27T17:14:42.033Z,8.13
2022-08-27T17:17:15.017Z,9.43
2022-08-27T17:19:45.445Z,7.40
2022-08-27T17:22:15.992Z,8.60
2022-08-27T17:24:49.926Z,7.40
2022-08-27T17:27:20.649Z,6.43
2022-08-27T17:29:50.900Z,7.50
2022-08-27T17:32:24.450Z,6.00
2022-08-27T17:34:54.680Z,6.28
2022-08-27T17:37:25.018Z,5.75
2022-08-27T17:39:55.835Z,7.50
2022-08-27T17:42:26.214Z,6.90
2022-08-27T17:44:58.922Z,7.72
2022-08-27T17:47:31.781Z,7.45
2022-08-27T17:50:02.699Z,6.65
2022-08-27T17:52:34.558Z,7.13
2022-08-27T17:55:04.784Z,5.75
2022-08-27T17:57:40.824Z,7.75
2022-08-27T18:00:15.532Z,5.70
2022-08-27T18:02:51.796Z,6.70
2022-08-27T18:05:26.095Z,6.05
2022-08-27T18:07:57.419Z,5.38
2022-08-27T18:10:31.329Z,4.47
2022-08-27T18:13:02.437Z,5.07
2022-08-27T18:15:36.759Z,7.75
2022-08-27T18:18:13.562Z,7.93
2022-08-27T18:20:46.255Z,6.15
2022-08-27T18:23:16.710Z,6.80
2022-08-27T18:25:47.726Z,6.35
2022-08-27T18:28:22.759Z,5.90
2022-08-27T18:30:53.566Z,7.05
2022-08-27T18:33:26.377Z,4.45
2022-08-27T18:35:57.819Z,10.80
2022-08-27T18:38:27.976Z,5.43
2022-08-27T18:40:58.662Z,4.65
2022-08-27T18:43:35.050Z,6.18
2022-08-27T18:46:08.255Z,5.03
2022-08-27T18:48:41.475Z,10.05
2022-08-27T18:51:17.946Z,9.25
2022-08-27T18:53:50.105Z,6.28
2022-08-27T18:56:22.968Z,4.72
2022-08-27T18:58:53.199Z,8.13
2022-08-27T19:01:31.887Z,5.15
2022-08-27T19:04:06.979Z,9.35
2022-08-27T19:06:41.373Z,7.40
2022-08-27T19:09:11.515Z,8.98
2022-08-27T19:11:41.667Z,6.32
2022-08-27T19:14:11.846Z,4.97
2022-08-27T19:16:47.091Z,7.00
2022-08-27T19:19:21.003Z,6.10
2022-08-27T19:21:51.766Z,6.15
2022-08-27T19:24:24.179Z,9.13
2022-08-27T19:26:56.323Z,7.05
2022-08-27T19:29:26.530Z,5.82
2022-08-27T19:31:56.812Z,4.85
2022-08-27T19:34:29.703Z,4.30
2022-08-27T19:37:04.127Z,7.70
2022-08-27T19:39:37.936Z,6.05
2022-08-27T19:42:12.692Z,5.70
2022-08-27T19:44:45.437Z,7.68
2022-08-27T19:47:21.377Z,7.60
2022-08-27T19:49:56.282Z,8.95
2022-08-27T19:52:27.019Z,4.68
2022-08-27T19:55:13.130Z,6.13
2022-08-27T19:57:43.727Z,5.63
2022-08-27T20:00:19.035Z,8.23
2022-08-27T20:02:52.619Z,9.40
2022-08-27T20:05:26.087Z,7.32
2022-08-27T20:07:56.687Z,9.70
2022-08-27T20:10:36.113Z,7.13
2022-08-27T20:13:06.876Z,7.82
2022-08-27T20:15:39.555Z,4.75
2022-08-27T20:18:13.034Z,5.40
2022-08-27T20:20:46.027Z,6.13
2022-08-27T20:23:16.414Z,6.53
2022-08-27T20:25:46.771Z,5.80
2022-08-27T20:28:38.925Z,4.93
2022-08-27T20:31:10.453Z,7.43
2022-08-27T20:33:44.024Z,7.15
2022-08-27T20:36:17.127Z,4.32
2022-08-27T20:38:47.607Z,4.72
2022-08-27T20:41:17.847Z,4.93
2022-08-27T20:43:48.517Z,6.88
2022-08-27T20:46:22.950Z,4.93
2022-08-27T20:48:53.387Z,5.82
2022-08-27T20:51:26.935Z,8.00
2022-08-27T20:53:57.283Z,5.95
2022-08-27T20:56:27.486Z,7.85
2022-08-27T20:59:10.203Z,6.53
2022-08-27T21:01:40.514Z,7.03
2022-08-27T21:04:10.702Z,6.25
2022-08-27T21:06:43.770Z,6.45
2022-08-27T21:09:13.930Z,6.28
2022-08-27T21:11:44.155Z,4.97
2022-08-27T21:14:14.397Z,7.07
2022-08-27T21:16:44.642Z,5.95
2022-08-27T21:19:17.876Z,8.30
2022-08-27T21:21:50.758Z,7.32
2022-08-27T21:24:21.836Z,9.80
2022-08-27T21:26:52.819Z,10.35
2022-08-27T21:29:23.798Z,6.28
2022-08-27T21:31:54.359Z,5.47
2022-08-27T21:34:24.576Z,6.05
2022-08-27T21:37:00.875Z,7.38
2022-08-27T21:39:32.805Z,6.10
2022-08-27T21:42:03.619Z,8.10
2022-08-27T21:44:34.318Z,5.45
2022-08-27T21:47:04.727Z,4.82
2022-08-27T21:49:38.407Z,8.63
2022-08-27T21:52:11.780Z,7.53
2022-08-27T21:54:46.711Z,6.82
2022-08-27T21:57:19.715Z,6.90
2022-08-27T21:59:53.524Z,7.13
2022-08-27T22:02:39.718Z,4.55
2022-08-27T22:05:13.017Z,4.90
2022-08-27T22:07:51.183Z,6.00
2022-08-27T22:10:21.575Z,7.03
2022-08-27T22:12:51.843Z,9.10
2022-08-27T22:15:26.215Z,6.45
2022-08-27T22:17:58.686Z,9.63
2022-08-27T22:20:29.138Z,7.90
2022-08-27T22:23:01.979Z,6.72
2022-08-27T22:25:32.449Z,7.07
2022-08-27T22:28:02.712Z,7.15
2022-08-27T22:30:33.129Z,5.90
2022-08-27T22:33:03.618Z,6.07
2022-08-27T22:35:35.231Z,6.88
2022-08-27T22:38:09.240Z,7.50
2022-08-27T22:40:40.116Z,6.95
2022-08-27T22:43:11.142Z,8.15
2022-08-27T22:45:41.287Z,7.60
2022-08-27T22:48:11.814Z,9.35
2022-08-27T22:50:42.490Z,4.88
2022-08-27T22:53:17.662Z,6.47
2022-08-27T22:55:50.253Z,7.25
2022-08-27T22:58:21.658Z,5.40
2022-08-27T23:00:54.835Z,6.15
2022-08-27T23:03:25.301Z,6.60
2022-08-27T23:05:55.638Z,5.15
2022-08-27T23:08:28.628Z,8.45
2022-08-27T23:10:58.981Z,8.15
2022-08-27T23:13:31.585Z,7.85
2022-08-27T23:16:02.898Z,6.43
2022-08-27T23:18:33.686Z,4.50
2022-08-27T23:21:05.546Z,6.85
2022-08-27T23:23:40.332Z,8.13
2022-08-27T23:26:23.038Z,6.80
2022-08-27T23:28:53.784Z,4.65
2022-08-27T23:31:24.367Z,5.07
2022-08-27T23:33:56.059Z,7.25
2022-08-27T23:36:26.659Z,7.10
2022-08-27T23:39:01.054Z,9.02
2022-08-27T23:41:31.246Z,7.80
2022-08-27T23:44:02.023Z,5.57
2022-08-27T23:46:32.284Z,4.78
2022-08-27T23:49:02.602Z,5.43
2022-08-27T23:51:33.042Z,7.03
2022-08-27T23:54:05.814Z,5.55
2022-08-27T23:56:36.032Z,5.82
2022-08-27T23:59:06.936Z,5.70
